Wetterdaten: aktuell Mittwoch, 10.08.2022 15:10
Datum Zeit Temp. A. Feuchte A. Luftdruck Regen Wind ET UV Solar Windben
10.08.2022 15:10 25,1 C 40 % 1023,7 hPa 0,0 l/m 4,4 km/h (1 Bft) 0,330 mm 0,3 UV-I 547 W/m 8,0 km/h (2 Bft)
10.08.2022 14:10 24,6 C 43 % 1024,1 hPa 0,0 l/m 2,7 km/h (1 Bft) 0,432 mm 0,4 UV-I 980 W/m 8,0 km/h (2 Bft)
10.08.2022 13:10 22,4 C 48 % 1024,3 hPa 0,0 l/m 2,9 km/h (1 Bft) 0,203 mm 0,0 UV-I 381 W/m 6,4 km/h (2 Bft)
10.08.2022 12:10 23,2 C 44 % 1024,7 hPa 0,0 l/m 3,9 km/h (1 Bft) 0,330 mm 0,0 UV-I 359 W/m 9,7 km/h (2 Bft)
10.08.2022 11:10 22,9 C 44 % 1024,6 hPa 0,0 l/m 1,3 km/h (1 Bft) 0,229 mm 0,0 UV-I 225 W/m 4,8 km/h (1 Bft)
10.08.2022 10:10 23,7 C 45 % 1024,6 hPa 0,0 l/m 1,7 km/h (1 Bft) 0,356 mm 0,0 UV-I 552 W/m 3,2 km/h (1 Bft)
10.08.2022 09:10 21,0 C 58 % 1024,6 hPa 0,0 l/m 1,8 km/h (1 Bft) 0,177 mm 0,0 UV-I 534 W/m 6,4 km/h (2 Bft)
10.08.2022 08:10 17,2 C 72 % 1024,6 hPa 0,0 l/m 0,0 km/h (0 Bft) 0,077 mm 0,0 UV-I 318 W/m 0,0 km/h (0 Bft)
10.08.2022 07:10 14,7 C 73 % 1024,8 hPa 0,0 l/m 0,0 km/h (0 Bft) 0,025 mm 0,0 UV-I 50 W/m 0,0 km/h (0 Bft)
10.08.2022 06:10 14,1 C 72 % 1024,5 hPa 0,0 l/m 0,0 km/h (0 Bft) 0,000 mm 0,0 UV-I 12 W/m 0,0 km/h (0 Bft)
10.08.2022 05:10 14,5 C 71 % 1024,3 hPa 0,0 l/m 0,4 km/h (0 Bft) 0,025 mm 0,0 UV-I 0 W/m 3,2 km/h (1 Bft)
10.08.2022 04:10 13,9 C 72 % 1024,4 hPa 0,0 l/m 0,4 km/h (0 Bft) 0,026 mm 0,0 UV-I 0 W/m 1,6 km/h (1 Bft)
10.08.2022 03:10 13,5 C 71 % 1024,5 hPa 0,0 l/m 0,0 km/h (0 Bft) 0,025 mm 0,0 UV-I 0 W/m 0,0 km/h (0 Bft)
10.08.2022 02:10 13,4 C 71 % 1024,7 hPa 0,0 l/m 0,0 km/h (0 Bft) 0,026 mm 0,0 UV-I 0 W/m 0,0 km/h (0 Bft)
10.08.2022 01:10 13,8 C 69 % 1024,9 hPa 0,0 l/m 0,0 km/h (0 Bft) 0,025 mm 0,0 UV-I 0 W/m 0,0 km/h (0 Bft)
10.08.2022 00:10 15,0 C 65 % 1025,0 hPa 0,0 l/m 0,0 km/h (0 Bft) 0,000 mm 0,0 UV-I 0 W/m 0,0 km/h (0 Bft)
09.08.2022 23:10 15,4 C 63 % 1024,7 hPa 0,0 l/m 0,0 km/h (0 Bft) 0,026 mm 0,0 UV-I 0 W/m 0,0 km/h (0 Bft)
09.08.2022 22:10 16,0 C 61 % 1024,7 hPa 0,0 l/m 0,0 km/h (0 Bft) 0,000 mm 0,0 UV-I 0 W/m 0,0 km/h (0 Bft)
09.08.2022 21:10 17,7 C 55 % 1024,4 hPa 0,0 l/m 0,0 km/h (0 Bft) 0,025 mm 0,0 UV-I 0 W/m 0,0 km/h (0 Bft)
09.08.2022 20:10 22,1 C 45 % 1023,7 hPa 0,0 l/m 0,0 km/h (0 Bft) 0,051 mm 0,0 UV-I 33 W/m 0,0 km/h (0 Bft)
09.08.2022 19:10 23,7 C 41 % 1023,6 hPa 0,0 l/m 0,0 km/h (0 Bft) 0,178 mm 0,0 UV-I 116 W/m 0,0 km/h (0 Bft)
09.08.2022 18:10 25,2 C 36 % 1023,7 hPa 0,0 l/m 3,4 km/h (1 Bft) 0,304 mm 0,0 UV-I 348 W/m 6,4 km/h (2 Bft)
09.08.2022 17:10 24,3 C 40 % 1023,8 hPa 0,0 l/m 2,2 km/h (1 Bft) 0,204 mm 0,0 UV-I 407 W/m 6,4 km/h (2 Bft)
09.08.2022 16:10 25,2 C 37 % 1023,9 hPa 0,0 l/m 3,2 km/h (1 Bft) 0,279 mm 0,0 UV-I 307 W/m 8,0 km/h (2 Bft)
09.08.2022 16:00 24,7 C 39 % 1023,9 hPa 0,0 l/m 1,4 km/h (1 Bft) 0,279 mm 0,1 UV-I 826 W/m 3,2 km/h (1 Bft)
_ Min-Zeit 02:06 16:08 17:38 - 19:04 - - - 19:06
Minimum _ 13,4 C 36 % 1023,6 hPa - 0,0 km/h (0 Bft) - - - 0,0 km/h (0 Bft)
_ Max-Zeit 17:44 06:40 00:10 16:00 17:46 14:00 13:24 13:40 17:46
Maximum _ 25,8 C 75 % 1025,0 hPa 0,0 l/m 6,8 km/h
O-NO (2 Bft)
0,432 mm 1,2 UV-I 1072 W/m 14,5 km/h
O (3 Bft)
Durchschnitt _ 19,5 C 55 % 1024,3 hPa #0,0 l/m 1,0 km/h (0 Bft) #2,286 mm 0,7 UV-I 354 W/m 2,6 km/h (1 Bft)